Time;durP1;ratioP1;P1;durP2;ratioP2;P2;SDS_P1;SDS_P2;PMS_P1;PMS_P2;Temp;Humidity;BMP_temperature;BMP_pressure;BME280_temperature;BME280_humidity;BME280_pressure;Samples;Min_cycle;Max_cycle;Signal;HPM_P1;HPM_P2
2022/03/20 13:25:25;;;;;;;17.27;8.48;;;15.30;34.10;;;;;;5016747;27;1482055;-51
2022/03/20 13:27:52;;;;;;;14.98;8.77;;;15.00;31.20;;;;;;5046136;28;20563;-52
2022/03/20 13:30:21;;;;;;;23.48;8.88;;;14.40;30.00;;;;;;5046081;28;20037;-53
2022/03/20 13:32:57;;;;;;;14.85;8.43;;;14.60;32.10;;;;;;5045686;28;20506;-51
2022/03/20 13:35:24;;;;;;;15.07;8.93;;;15.10;32.40;;;;;;5045357;28;20029;-53
2022/03/20 13:37:57;;;;;;;;;;;15.20;30.70;;;;;;5044806;28;20033;-50
2022/03/20 13:40:25;;;;;;;16.90;9.32;;;14.70;29.90;;;;;;5045827;28;19944;-53
2022/03/20 13:42:51;;;;;;;14.93;8.98;;;14.70;30.80;;;;;;5031152;28;20164;-52
2022/03/20 13:45:17;;;;;;;15.68;9.27;;;14.90;31.40;;;;;;5024798;28;20069;-52
2022/03/20 13:47:44;;;;;;;17.23;9.57;;;14.50;29.80;;;;;;5025436;28;20639;-51
2022/03/20 13:50:12;;;;;;;15.00;10.13;;;14.20;30.00;;;;;;5043283;28;20033;-53
2022/03/20 13:52:41;;;;;;;15.70;9.40;;;14.10;31.90;;;;;;5042900;28;20067;-52
2022/03/20 13:55:08;;;;;;;16.75;9.65;;;14.60;33.20;;;;;;5042752;28;20449;-52
2022/03/20 13:57:47;;;;;;;16.85;9.18;;;14.80;31.80;;;;;;5027928;28;20040;-51
2022/03/20 14:00:13;;;;;;;16.90;10.25;;;15.10;31.80;;;;;;5024757;28;20423;-53
2022/03/20 14:02:41;;;;;;;17.27;10.20;;;15.30;31.60;;;;;;5024541;28;20026;-52
2022/03/20 14:05:12;;;;;;;19.63;10.50;;;15.10;31.00;;;;;;5032369;28;20120;-54
2022/03/20 14:07:38;;;;;;;15.70;10.10;;;15.40;31.50;;;;;;5042574;28;20024;-54
2022/03/20 14:10:48;;;;;;;19.13;11.13;;;15.40;31.60;;;;;;5040944;28;20391;-50
2022/03/20 14:13:25;;;;;;;20.42;10.63;;;15.40;31.50;;;;;;5004997;28;20080;-54
2022/03/20 14:16:06;;;;;;;21.25;10.90;;;15.60;32.30;;;;;;5044521;28;20021;-53
2022/03/20 14:18:54;;;;;;;18.95;11.30;;;15.30;31.30;;;;;;5044951;28;20108;-52
2022/03/20 14:21:25;;;;;;;16.88;10.23;;;15.50;34.40;;;;;;5042229;28;20112;-52
2022/03/20 14:24:08;;;;;;;17.15;10.32;;;15.60;33.40;;;;;;5044132;28;20057;-54
2022/03/20 14:26:45;;;;;;;17.00;10.90;;;15.30;30.90;;;;;;5043707;28;20078;-53
2022/03/20 14:40:45;;;;;;;19.02;10.95;;;15.00;30.60;;;;;;5031497;28;20040;-54
2022/03/20 14:43:12;;;;;;;21.63;11.00;;;14.60;31.30;;;;;;5014949;28;20030;-53
2022/03/20 14:45:39;;;;;;;17.92;10.43;;;14.30;32.30;;;;;;5010899;28;20096;-53
2022/03/20 14:48:17;;;;;;;21.20;10.07;;;14.00;31.20;;;;;;5011577;28;20172;-53
2022/03/20 14:50:42;;;;;;;17.27;9.57;;;13.90;31.70;;;;;;5011202;28;20136;-51
2022/03/20 14:53:08;;;;;;;17.00;10.00;;;13.70;32.10;;;;;;5009517;28;20798;-53
2022/03/20 14:55:34;;;;;;;23.60;11.80;;;14.00;32.80;;;;;;5015045;28;20033;-51
2022/03/20 14:58:00;;;;;;;20.20;10.85;;;13.50;32.20;;;;;;5030189;28;20032;-54
2022/03/20 15:00:27;;;;;;;22.48;10.93;;;13.50;31.80;;;;;;5029547;28;20492;-52
2022/03/20 15:02:53;;;;;;;16.70;9.77;;;13.70;32.60;;;;;;5030505;28;20048;-52
2022/03/20 15:05:18;;;;;;;15.82;9.70;;;14.20;33.90;;;;;;5030137;28;20292;-52
2022/03/20 15:11:23;;;;;;;19.60;10.88;;;14.40;33.50;;;;;;5029986;28;20667;-53
2022/03/20 15:13:16;;;;;;;21.52;11.10;;;14.40;33.80;;;;;;4983464;28;20044;-53
2022/03/20 15:15:41;;;;;;;23.90;12.82;;;14.50;33.50;;;;;;5019904;28;20038;-51
2022/03/20 15:18:10;;;;;;;22.65;11.70;;;14.60;33.80;;;;;;5020915;28;20022;-52
2022/03/20 15:20:35;;;;;;;18.73;11.77;;;14.30;31.90;;;;;;5019233;28;20116;-51
2022/03/20 15:23:01;;;;;;;19.25;12.20;;;14.20;32.90;;;;;;5019676;28;20594;-52
2022/03/20 15:25:27;;;;;;;21.38;11.68;;;13.90;32.40;;;;;;5019713;28;20057;-54
2022/03/20 15:27:53;;;;;;;19.15;11.60;;;13.40;32.50;;;;;;5018749;28;20145;-51
2022/03/20 15:30:19;;;;;;;17.60;10.75;;;13.60;34.90;;;;;;5023092;28;20033;-53
2022/03/20 15:32:45;;;;;;;19.35;11.80;;;13.20;32.90;;;;;;5013571;28;20469;-53
2022/03/20 15:35:11;;;;;;;17.48;11.80;;;13.40;34.70;;;;;;5017407;28;20025;-53
2022/03/20 15:37:37;;;;;;;17.45;11.30;;;13.60;34.50;;;;;;5010488;28;20038;-51
2022/03/20 15:40:03;;;;;;;18.60;11.75;;;13.80;34.60;;;;;;5019944;28;20530;-52
2022/03/20 15:42:29;;;;;;;18.60;11.73;;;13.90;34.60;;;;;;5018832;28;20022;-53
2022/03/20 15:44:54;;;;;;;21.77;12.02;;;13.90;34.90;;;;;;5017283;28;20380;-53
2022/03/20 15:47:21;;;;;;;21.65;12.65;;;13.80;34.30;;;;;;5018652;28;20394;-51
2022/03/20 15:49:47;;;;;;;21.83;11.75;;;13.80;35.00;;;;;;5018092;28;20026;-54
2022/03/20 15:52:13;;;;;;;24.37;12.33;;;13.70;34.20;;;;;;5013287;28;20065;-52
2022/03/20 15:54:40;;;;;;;24.30;13.43;;;13.80;35.80;;;;;;5008219;28;20061;-53
2022/03/20 15:57:06;;;;;;;23.90;12.82;;;13.70;34.90;;;;;;5022186;28;20030;-53
2022/03/20 15:59:32;;;;;;;19.35;11.30;;;13.60;35.50;;;;;;5016850;28;20033;-52
2022/03/20 16:01:58;;;;;;;20.65;13.15;;;13.60;35.30;;;;;;5015563;28;20048;-52
2022/03/20 16:04:24;;;;;;;27.88;11.75;;;13.10;33.60;;;;;;5015490;28;20123;-50
2022/03/20 16:06:50;;;;;;;24.95;12.80;;;13.00;34.50;;;;;;5014937;28;20022;-52
2022/03/20 16:09:16;;;;;;;23.75;12.65;;;13.10;35.60;;;;;;5015500;28;20034;-51
2022/03/20 16:11:41;;;;;;;19.67;11.65;;;13.00;36.00;;;;;;5015188;28;20030;-52
2022/03/20 16:14:07;;;;;;;21.73;12.85;;;12.90;35.80;;;;;;5020430;28;20616;-53
2022/03/20 16:16:34;;;;;;;21.52;11.95;;;12.60;35.70;;;;;;5020476;28;20048;-51
2022/03/20 16:19:00;;;;;;;21.30;11.73;;;12.40;35.90;;;;;;5020198;28;20069;-52
2022/03/20 16:21:26;;;;;;;23.73;14.35;;;12.10;36.20;;;;;;5020112;28;20022;-52
2022/03/20 16:29:22;;;;;;;28.50;13.38;;;11.70;37.30;;;;;;5020031;28;20060;-51
2022/03/20 16:32:00;;;;;;;23.45;12.40;;;11.50;38.20;;;;;;5015111;28;20496;-52
2022/03/20 16:34:26;;;;;;;;;;;11.40;37.30;;;;;;5017869;28;20040;-51
2022/03/20 16:36:53;;;;;;;22.67;13.02;;;11.40;38.20;;;;;;5017134;28;20372;-52
2022/03/20 16:39:20;;;;;;;24.53;12.53;;;11.30;38.80;;;;;;5023048;28;20038;-53
2022/03/20 16:41:50;;;;;;;28.65;12.80;;;11.20;38.70;;;;;;5021797;28;20703;-51
2022/03/20 16:44:18;;;;;;;30.27;14.45;;;11.00;39.10;;;;;;5018718;28;20040;-52
2022/03/20 16:46:43;;;;;;;22.33;11.82;;;10.80;39.50;;;;;;5012510;28;20032;-52
2022/03/20 16:49:10;;;;;;;23.10;12.60;;;10.80;38.50;;;;;;5012343;28;20855;-53
2022/03/20 16:51:35;;;;;;;19.92;11.55;;;10.60;38.90;;;;;;5011489;28;20108;-54
2022/03/20 16:54:01;;;;;;;17.20;10.32;;;10.50;38.30;;;;;;5009305;28;20101;-54
2022/03/20 16:56:27;;;;;;;17.17;11.10;;;10.40;38.00;;;;;;5018416;28;20033;-53
2022/03/20 16:58:54;;;;;;;20.75;11.50;;;10.40;39.00;;;;;;5024994;28;20014;-55
2022/03/20 17:01:20;;;;;;;24.40;12.15;;;10.30;38.30;;;;;;5020109;28;20045;-53
2022/03/20 17:03:46;;;;;;;23.92;12.13;;;10.10;38.90;;;;;;5020064;28;20124;-54
2022/03/20 17:06:12;;;;;;;29.27;12.88;;;10.10;39.50;;;;;;5019438;28;20108;-54
2022/03/20 17:08:37;;;;;;;25.35;13.20;;;10.00;39.30;;;;;;5020691;28;20032;-55
2022/03/20 17:11:05;;;;;;;28.00;14.45;;;9.90;39.80;;;;;;5017050;28;20087;-52
2022/03/20 17:13:31;;;;;;;33.50;16.33;;;9.70;40.30;;;;;;5020598;28;20535;-52
2022/03/20 17:15:57;;;;;;;39.70;19.10;;;9.40;41.30;;;;;;5021357;28;20865;-51
2022/03/20 17:18:24;;;;;;;32.55;16.63;;;9.20;41.20;;;;;;5021704;28;20101;-53
2022/03/20 17:20:49;;;;;;;30.48;15.20;;;9.20;40.50;;;;;;5012639;28;20030;-52
2022/03/20 17:23:16;;;;;;;28.58;14.52;;;9.10;40.50;;;;;;5014539;28;20072;-53
2022/03/20 17:25:41;;;;;;;34.10;15.90;;;9.00;40.10;;;;;;5013732;28;20037;-53
2022/03/20 17:28:07;;;;;;;28.67;14.18;;;8.90;40.30;;;;;;5007865;28;20435;-53
2022/03/20 17:30:36;;;;;;;32.72;14.13;;;8.90;40.40;;;;;;5013729;28;20093;-52
2022/03/20 17:33:06;;;;;;;30.23;15.10;;;8.80;40.90;;;;;;5010870;28;20052;-54
2022/03/20 17:35:34;;;;;;;31.60;15.20;;;8.70;41.00;;;;;;5012887;28;20080;-52
2022/03/20 17:38:00;;;;;;;31.98;17.48;;;8.70;41.30;;;;;;4970280;28;20393;-53
2022/03/20 17:40:27;;;;;;;34.70;17.75;;;8.50;40.70;;;;;;5016704;28;20084;-53
2022/03/20 17:42:58;;;;;;;42.75;17.30;;;8.40;41.20;;;;;;5013524;28;20025;-54
2022/03/20 17:45:31;;;;;;;35.45;16.98;;;8.40;41.30;;;;;;5015596;28;20076;-51
2022/03/20 17:47:57;;;;;;;41.17;18.85;;;8.40;41.50;;;;;;5014760;28;20026;-52
2022/03/20 17:50:23;;;;;;;48.17;20.05;;;8.40;41.50;;;;;;5014287;28;20041;-53
2022/03/20 17:52:50;;;;;;;50.40;22.95;;;8.30;41.10;;;;;;5022633;28;20210;-54
2022/03/20 17:55:16;;;;;;;54.30;23.05;;;8.20;41.50;;;;;;5027173;28;20117;-54
2022/03/20 17:57:43;;;;;;;55.08;25.95;;;8.20;41.70;;;;;;5014484;28;20060;-54
2022/03/20 18:00:13;;;;;;;50.33;23.73;;;8.10;41.90;;;;;;5015842;28;20488;-52
2022/03/20 18:08:10;;;;;;;41.38;20.35;;;7.90;41.80;;;;;;5016203;28;20488;-51
2022/03/20 18:10:37;;;;;;;38.13;19.00;;;7.80;42.20;;;;;;5017256;28;20025;-50
2022/03/20 18:13:08;;;;;;;41.03;19.35;;;7.70;42.50;;;;;;5020193;28;20064;-52
2022/03/20 18:15:36;;;;;;;41.20;18.33;;;7.60;42.10;;;;;;5020072;28;20038;-52
2022/03/20 18:18:03;;;;;;;44.63;21.30;;;7.60;42.20;;;;;;5016061;28;20018;-52
2022/03/20 18:20:29;;;;;;;42.97;19.38;;;7.50;42.80;;;;;;5021931;28;20029;-52
2022/03/20 18:22:56;;;;;;;39.58;19.30;;;7.40;42.30;;;;;;5017158;28;20026;-52
2022/03/20 18:25:29;;;;;;;40.30;19.02;;;7.40;42.50;;;;;;5012937;28;20053;-52
2022/03/20 18:27:56;;;;;;;38.00;17.50;;;7.30;42.60;;;;;;5013422;28;20076;-51
2022/03/20 18:30:25;;;;;;;35.28;18.52;;;7.20;42.70;;;;;;5022691;28;20112;-51
2022/03/20 18:32:52;;;;;;;35.42;16.33;;;7.20;43.10;;;;;;5019203;28;20036;-52
2022/03/20 18:35:18;;;;;;;36.80;16.85;;;7.10;42.80;;;;;;5018746;28;20014;-52
2022/03/20 18:37:44;;;;;;;35.78;18.85;;;7.10;42.90;;;;;;5018131;28;20108;-52
2022/03/20 18:40:11;;;;;;;39.80;19.40;;;7.00;42.60;;;;;;5020863;28;20030;-52
2022/03/20 18:42:40;;;;;;;38.42;19.65;;;7.00;43.10;;;;;;5016793;28;20030;-53
2022/03/20 18:45:08;;;;;;;50.67;21.13;;;6.90;43.00;;;;;;5016920;28;20050;-54
2022/03/20 18:47:35;;;;;;;44.33;22.38;;;6.80;43.20;;;;;;5017841;28;20021;-51
2022/03/20 18:50:00;;;;;;;41.78;21.65;;;6.70;43.10;;;;;;5020074;28;20498;-54
2022/03/20 18:52:26;;;;;;;42.60;19.83;;;6.70;43.10;;;;;;5019046;28;20014;-53
2022/03/20 18:54:52;;;;;;;39.20;19.33;;;6.70;43.50;;;;;;5018023;28;20013;-52
2022/03/20 18:57:18;;;;;;;41.72;18.13;;;6.70;43.80;;;;;;5018225;28;20164;-52
2022/03/20 18:59:47;;;;;;;38.08;18.98;;;6.60;44.30;;;;;;5015277;28;20021;-52
2022/03/20 19:02:15;;;;;;;37.50;17.17;;;6.60;44.10;;;;;;5022036;28;20059;-52
2022/03/20 19:04:43;;;;;;;42.95;18.65;;;6.50;43.70;;;;;;5017675;28;20026;-52
2022/03/20 19:07:10;;;;;;;41.80;18.52;;;6.40;43.70;;;;;;5001669;28;20040;-51
2022/03/20 19:09:37;;;;;;;42.40;19.93;;;6.40;43.60;;;;;;4996814;28;20132;-53
2022/03/20 19:12:04;;;;;;;42.90;18.92;;;6.40;44.10;;;;;;5015529;28;20270;-52
2022/03/20 19:14:31;;;;;;;;;;;6.40;44.40;;;;;;5018948;28;20034;-51
2022/03/20 19:16:57;;;;;;;46.45;20.15;;;6.30;44.50;;;;;;5015291;28;19921;-52
2022/03/20 19:19:23;;;;;;;47.05;19.52;;;6.30;44.50;;;;;;5018169;28;20037;-53
2022/03/20 19:21:49;;;;;;;48.30;19.83;;;6.20;44.60;;;;;;5016785;28;20033;-53
2022/03/20 19:24:16;;;;;;;48.95;20.20;;;6.20;44.60;;;;;;5009235;28;20126;-53
2022/03/20 19:26:42;;;;;;;48.35;19.73;;;6.20;44.70;;;;;;5015883;28;20040;-52
2022/03/20 19:29:08;;;;;;;43.65;18.48;;;6.20;44.80;;;;;;5017180;28;20312;-52
2022/03/20 19:31:34;;;;;;;39.35;18.58;;;6.10;44.70;;;;;;5029486;28;20029;-51
2022/03/20 19:42:15;;;;;;;39.83;18.00;;;6.00;45.00;;;;;;5018127;28;20041;-51
2022/03/20 19:44:41;;;;;;;40.10;17.23;;;6.00;44.80;;;;;;5017133;28;20026;-49
2022/03/20 19:47:07;;;;;;;37.63;18.33;;;5.90;45.30;;;;;;5016760;28;20484;-53
2022/03/20 19:49:35;;;;;;;39.50;19.30;;;5.90;45.60;;;;;;5017707;28;20033;-53
2022/03/20 19:52:04;;;;;;;48.70;21.05;;;5.80;45.80;;;;;;5016963;28;20097;-54
2022/03/20 19:54:31;;;;;;;44.95;19.77;;;5.80;46.00;;;;;;5017497;28;20558;-51
2022/03/20 19:56:57;;;;;;;44.63;20.10;;;5.70;46.20;;;;;;5021030;28;20021;-53
2022/03/20 19:59:22;;;;;;;41.28;20.17;;;5.80;46.50;;;;;;5013057;28;20030;-51
2022/03/20 20:01:48;;;;;;;43.97;20.20;;;5.70;46.90;;;;;;5017429;28;20424;-54
2022/03/20 20:04:13;;;;;;;44.60;20.52;;;5.60;46.70;;;;;;5018735;28;20041;-52
2022/03/20 20:06:39;;;;;;;47.55;21.13;;;5.60;47.20;;;;;;5019625;28;20040;-51
2022/03/20 20:09:11;;;;;;;44.85;19.92;;;5.60;47.40;;;;;;5019547;28;20079;-53
2022/03/20 20:11:41;;;;;;;44.88;19.98;;;5.50;47.40;;;;;;5014698;28;20108;-53
2022/03/20 20:16:53;;;;;;;48.25;21.52;;;5.50;47.50;;;;;;5017872;28;20074;-52
2022/03/20 20:19:19;;;;;;;49.97;22.48;;;5.40;47.30;;;;;;5009229;28;20121;-52
2022/03/20 20:21:46;;;;;;;54.70;24.33;;;5.30;47.30;;;;;;5014308;28;20024;-53
2022/03/20 20:24:12;;;;;;;54.50;24.58;;;5.30;48.10;;;;;;5027900;28;20299;-55
2022/03/20 20:26:38;;;;;;;50.60;22.58;;;5.30;48.10;;;;;;5019981;28;20034;-53
2022/03/20 20:29:04;;;;;;;50.50;21.60;;;5.30;48.20;;;;;;5015964;28;20019;-53
2022/03/20 20:31:30;;;;;;;51.92;21.73;;;5.30;48.40;;;;;;5025876;28;20056;-55
2022/03/20 20:33:56;;;;;;;52.10;23.35;;;5.30;48.50;;;;;;5019256;28;20119;-53
2022/03/20 20:36:22;;;;;;;55.75;24.77;;;5.20;49.00;;;;;;5018099;28;20097;-55
2022/03/20 20:38:48;;;;;;;57.50;25.17;;;5.10;49.60;;;;;;5018000;28;20026;-52
2022/03/20 20:41:14;;;;;;;82.70;33.20;;;4.90;49.80;;;;;;5018071;28;20372;-53
2022/03/20 20:43:40;;;;;;;107.88;41.53;;;4.90;50.10;;;;;;5018628;28;20045;-51
2022/03/20 20:46:05;;;;;;;111.50;42.92;;;4.80;50.10;;;;;;5017043;28;20029;-54
2022/03/20 20:48:31;;;;;;;112.72;43.70;;;4.80;50.40;;;;;;5018571;28;20108;-52
2022/03/20 20:50:57;;;;;;;123.85;44.65;;;4.80;50.20;;;;;;5019219;28;20026;-51
2022/03/20 20:53:24;;;;;;;114.78;45.40;;;4.70;50.20;;;;;;5016526;28;20014;-53
2022/03/20 20:55:52;;;;;;;109.45;45.28;;;4.60;50.30;;;;;;5028160;28;20385;-53
2022/03/20 20:58:18;;;;;;;;;;;4.60;51.00;;;;;;5029068;28;20029;-52
2022/03/20 21:00:44;;;;;;;126.30;48.05;;;4.60;50.90;;;;;;5015611;28;19919;-50
2022/03/20 21:03:09;;;;;;;108.53;40.58;;;4.50;51.20;;;;;;5016385;28;20435;-53
2022/03/20 21:05:35;;;;;;;108.63;41.60;;;4.50;50.70;;;;;;5019539;28;20027;-52
2022/03/20 21:10:57;;;;;;;86.38;35.33;;;4.30;51.00;;;;;;5028417;28;20039;-54
2022/03/20 21:13:29;;;;;;;81.20;33.10;;;4.30;51.30;;;;;;5027032;28;20030;-52
2022/03/20 21:15:56;;;;;;;77.25;31.10;;;4.30;51.50;;;;;;5026277;28;20030;-52
2022/03/20 21:18:22;;;;;;;60.38;28.02;;;4.20;51.50;;;;;;5011495;28;20030;-53
2022/03/20 21:20:49;;;;;;;60.30;27.20;;;4.20;51.60;;;;;;5008183;28;20145;-52
2022/03/20 21:23:15;;;;;;;58.83;26.80;;;4.20;51.50;;;;;;5007817;28;20112;-54
2022/03/20 21:25:41;;;;;;;61.55;26.73;;;4.20;51.60;;;;;;5008262;28;20058;-54
2022/03/20 21:28:07;;;;;;;65.13;27.48;;;4.10;51.70;;;;;;5008143;28;20034;-52
2022/03/20 21:30:33;;;;;;;60.35;27.63;;;4.00;52.00;;;;;;5016778;28;20033;-52
2022/03/20 21:32:59;;;;;;;67.65;27.80;;;4.00;52.30;;;;;;5018268;28;20025;-53
2022/03/20 21:35:25;;;;;;;60.85;26.92;;;4.00;52.60;;;;;;5016353;28;20064;-51
2022/03/20 21:37:51;;;;;;;70.13;28.70;;;4.00;52.90;;;;;;5014805;28;20053;-53
2022/03/20 21:40:18;;;;;;;66.25;28.65;;;4.00;53.00;;;;;;5013403;28;20033;-51
2022/03/20 21:42:45;;;;;;;67.03;30.50;;;3.90;53.10;;;;;;5007906;28;20060;-53
2022/03/20 21:45:12;;;;;;;71.15;31.33;;;3.90;53.60;;;;;;5007171;28;20034;-54
2022/03/20 21:47:38;;;;;;;68.93;30.73;;;3.80;53.60;;;;;;5012084;28;20057;-54
2022/03/20 21:50:06;;;;;;;59.55;29.45;;;3.70;53.90;;;;;;5011984;28;20038;-54
2022/03/20 21:52:34;;;;;;;60.45;28.67;;;3.70;54.10;;;;;;5010519;28;20501;-53
2022/03/20 21:55:00;;;;;;;57.60;26.90;;;3.70;54.10;;;;;;5011729;28;20481;-52
2022/03/20 21:57:26;;;;;;;63.83;29.92;;;3.70;54.70;;;;;;5026265;28;20025;-52
2022/03/20 21:59:51;;;;;;;67.65;30.38;;;3.70;54.20;;;;;;5031689;28;20052;-52
2022/03/20 22:02:17;;;;;;;68.93;34.60;;;3.60;54.50;;;;;;5031314;28;20362;-51
2022/03/20 22:04:46;;;;;;;69.30;31.75;;;3.60;54.70;;;;;;5031143;28;20038;-52
2022/03/20 22:07:12;;;;;;;71.47;34.47;;;3.50;55.30;;;;;;5029553;28;20060;-52
2022/03/20 22:09:38;;;;;;;67.45;33.05;;;3.50;55.30;;;;;;5031098;28;20057;-52
2022/03/20 22:12:04;;;;;;;72.80;32.70;;;3.50;56.00;;;;;;5030013;28;20105;-54
2022/03/20 22:14:30;;;;;;;70.72;32.72;;;3.50;55.80;;;;;;5010954;28;20030;-54
2022/03/20 22:16:56;;;;;;;88.18;37.22;;;3.50;55.90;;;;;;5010795;28;20033;-54
2022/03/20 22:19:22;;;;;;;74.85;35.40;;;3.40;56.20;;;;;;5011358;28;20088;-52
2022/03/20 22:21:47;;;;;;;78.43;35.00;;;3.20;56.70;;;;;;5011013;28;20127;-52
2022/03/20 22:24:13;;;;;;;78.10;34.83;;;3.20;57.10;;;;;;5010736;28;20052;-54
2022/03/20 22:26:39;;;;;;;78.80;36.33;;;3.00;57.50;;;;;;5011082;28;20517;-52
2022/03/20 22:29:09;;;;;;;80.30;35.97;;;3.00;58.00;;;;;;5017949;28;20036;-54
2022/03/20 22:31:36;;;;;;;70.95;32.65;;;2.90;58.00;;;;;;5031039;28;20521;-55
2022/03/20 22:34:02;;;;;;;80.35;34.15;;;3.00;57.50;;;;;;5030557;28;20018;-53
2022/03/20 22:39:12;;;;;;;73.88;34.25;;;3.10;57.80;;;;;;5031000;28;20686;-53
2022/03/20 22:41:38;;;;;;;75.07;34.63;;;3.00;59.00;;;;;;5030491;28;20124;-53
2022/03/20 22:44:05;;;;;;;80.18;34.22;;;2.90;58.40;;;;;;5028489;28;20116;-52
2022/03/20 22:46:31;;;;;;;75.20;34.53;;;3.00;58.20;;;;;;5030357;28;20497;-53
2022/03/20 22:51:45;;;;;;;72.35;30.75;;;3.00;57.20;;;;;;5030813;28;20044;-52
2022/03/20 22:54:12;;;;;;;71.13;32.33;;;3.00;56.90;;;;;;5030158;28;20013;-53
2022/03/20 22:56:39;;;;;;;58.35;26.77;;;2.80;57.90;;;;;;5021322;28;20049;-55
2022/03/20 22:59:06;;;;;;;65.80;28.67;;;3.00;57.20;;;;;;5010800;28;20034;-52
2022/03/20 23:01:32;;;;;;;51.58;23.58;;;2.90;57.60;;;;;;5010612;28;20113;-54
2022/03/20 23:03:58;;;;;;;59.55;25.92;;;3.00;57.40;;;;;;5010287;28;20120;-52
2022/03/20 23:06:25;;;;;;;66.78;26.15;;;2.90;58.20;;;;;;5009810;28;20022;-54
2022/03/20 23:08:51;;;;;;;56.33;25.50;;;2.90;58.40;;;;;;5010691;28;20066;-52
2022/03/20 23:11:17;;;;;;;51.53;26.03;;;3.00;58.40;;;;;;5010614;28;20385;-52
2022/03/20 23:13:43;;;;;;;53.25;23.65;;;3.00;59.00;;;;;;5010003;28;20022;-53
2022/03/20 23:16:12;;;;;;;58.67;25.35;;;2.90;58.50;;;;;;5009955;28;20076;-53
2022/03/20 23:18:40;;;;;;;61.55;27.63;;;2.90;59.70;;;;;;5009938;28;20101;-54
2022/03/20 23:21:06;;;;;;;57.97;25.73;;;2.80;60.40;;;;;;5010398;28;20118;-54
2022/03/20 23:23:33;;;;;;;50.08;24.95;;;2.80;60.60;;;;;;5007989;28;20022;-54
2022/03/20 23:25:59;;;;;;;59.97;26.17;;;2.70;61.50;;;;;;5009856;28;20040;-53
2022/03/20 23:28:25;;;;;;;55.50;25.38;;;2.60;61.70;;;;;;5011450;28;20030;-54
2022/03/20 23:30:51;;;;;;;51.58;23.15;;;2.60;61.50;;;;;;5029539;28;20128;-54
2022/03/20 23:33:17;;;;;;;52.72;24.48;;;2.50;60.90;;;;;;5029052;28;20108;-53
2022/03/20 23:35:46;;;;;;;45.15;23.33;;;2.60;59.80;;;;;;5029190;28;20108;-53
2022/03/20 23:38:12;;;;;;;51.60;24.25;;;2.50;60.50;;;;;;5028253;28;20017;-55
2022/03/20 23:40:40;;;;;;;53.45;24.30;;;2.40;60.70;;;;;;5029754;28;20025;-52
2022/03/20 23:43:15;;;;;;;52.13;24.52;;;2.40;60.90;;;;;;5029094;28;20704;-54
2022/03/20 23:45:49;;;;;;;59.75;25.77;;;2.40;59.80;;;;;;5029520;28;20086;-54
2022/03/20 23:48:16;;;;;;;54.65;25.23;;;2.50;59.60;;;;;;5029314;28;20548;-54
2022/03/20 23:50:42;;;;;;;;;;;2.50;59.50;;;;;;5029312;28;20053;-54
2022/03/20 23:53:08;;;;;;;54.83;24.55;;;2.50;59.50;;;;;;5017426;28;19935;-54
2022/03/20 23:55:34;;;;;;;56.22;25.83;;;2.50;59.70;;;;;;5019198;28;20029;-53
2022/03/20 23:58:07;;;;;;;59.40;26.17;;;2.60;59.40;;;;;;5018205;28;20116;-53
